createdAt,value
2022-08-02T00:03:27.705Z,15.26
2022-08-02T00:08:49.229Z,15.36
2022-08-02T00:14:11.529Z,13.54
2022-08-02T00:19:13.822Z,15.32
2022-08-02T00:24:29.935Z,15.83
2022-08-02T00:29:33.137Z,15.87
2022-08-02T00:34:38.066Z,15.31
2022-08-02T00:39:40.879Z,14.96
2022-08-02T00:44:43.551Z,15.45
2022-08-02T00:49:45.810Z,14.75
2022-08-02T00:54:48.052Z,15.51
2022-08-02T00:59:56.000Z,15.32
2022-08-02T01:04:58.254Z,15.25
2022-08-02T01:10:03.164Z,15.24
2022-08-02T01:15:36.134Z,14.99
2022-08-02T01:21:07.258Z,15.40
2022-08-02T01:26:24.578Z,15.42
2022-08-02T01:31:35.318Z,15.35
2022-08-02T01:36:40.923Z,14.78
2022-08-02T01:41:44.114Z,15.02
2022-08-02T01:47:10.823Z,14.51
2022-08-02T01:52:23.116Z,15.15
2022-08-02T01:57:26.858Z,13.62
2022-08-02T02:02:31.808Z,15.06
2022-08-02T02:07:35.446Z,14.86
2022-08-02T02:12:39.975Z,13.89
2022-08-02T02:18:11.008Z,12.15
2022-08-02T02:23:15.698Z,14.17
2022-08-02T02:28:30.535Z,14.91
2022-08-02T02:33:34.432Z,14.43
2022-08-02T02:38:57.814Z,14.40
2022-08-02T02:44:02.360Z,12.33
2022-08-02T02:49:04.663Z,13.56
2022-08-02T02:54:34.619Z,14.11
2022-08-02T02:59:50.013Z,13.63
2022-08-02T03:04:56.293Z,14.46
2022-08-02T03:10:00.233Z,14.63
2022-08-02T03:15:21.737Z,14.81
2022-08-02T03:20:23.999Z,13.96
2022-08-02T03:25:26.290Z,15.03
2022-08-02T03:30:28.433Z,12.71
2022-08-02T03:35:30.761Z,12.59
2022-08-02T03:40:33.105Z,14.95
2022-08-02T03:45:37.337Z,15.09
2022-08-02T03:50:58.506Z,15.12
2022-08-02T03:56:19.605Z,15.36
2022-08-02T04:01:40.946Z,15.42
2022-08-02T04:06:43.159Z,15.49
2022-08-02T04:11:47.370Z,15.33
2022-08-02T04:16:55.021Z,16.09
2022-08-02T04:21:58.608Z,14.89
2022-08-02T04:27:19.308Z,16.74
2022-08-02T04:32:24.158Z,16.03
2022-08-02T04:37:27.295Z,14.51
2022-08-02T04:42:29.598Z,16.88
2022-08-02T04:48:01.817Z,17.35
2022-08-02T04:52:54.093Z,16.50
2022-08-02T04:58:38.773Z,17.54
2022-08-02T05:03:37.556Z,17.46
2022-08-02T05:08:39.878Z,17.85
2022-08-02T05:13:58.602Z,18.24
2022-08-02T05:19:02.846Z,18.69
2022-08-02T05:24:05.957Z,16.60
2022-08-02T05:29:08.135Z,18.95
2022-08-02T05:34:12.088Z,18.78
2022-08-02T05:39:18.854Z,19.46
2022-08-02T05:44:22.029Z,18.33
2022-08-02T05:50:02.229Z,19.26
2022-08-02T05:56:33.500Z,20.16
2022-08-02T06:01:38.630Z,19.67
2022-08-02T06:07:07.299Z,20.50
2022-08-02T06:12:12.337Z,18.86
2022-08-02T06:17:14.700Z,20.78
2022-08-02T06:22:34.751Z,20.69
2022-08-02T06:27:40.451Z,19.28
2022-08-02T06:32:45.085Z,21.29
2022-08-02T06:37:59.064Z,20.72
2022-08-02T06:43:01.416Z,21.56
2022-08-02T06:48:05.004Z,20.74
2022-08-02T06:53:07.720Z,21.69
2022-08-02T06:58:09.935Z,21.45
2022-08-02T07:03:12.320Z,21.65
2022-08-02T07:08:18.410Z,20.46
2022-08-02T07:13:20.644Z,21.07
2022-08-02T07:18:24.235Z,22.19
2022-08-02T07:23:26.540Z,21.99
2022-08-02T07:28:28.732Z,22.38
2022-08-02T07:33:38.134Z,20.23
2022-08-02T07:38:41.483Z,22.24
2022-08-02T07:43:44.237Z,21.84
2022-08-02T07:48:48.085Z,21.99
2022-08-02T07:54:04.077Z,22.00
2022-08-02T07:59:07.694Z,21.17
2022-08-02T08:04:10.112Z,22.64
2022-08-02T08:09:12.907Z,20.71
2022-08-02T08:14:18.996Z,21.33
2022-08-02T08:19:21.228Z,22.18
2022-08-02T08:24:43.716Z,22.11
2022-08-02T08:29:51.226Z,22.60
2022-08-02T08:34:53.583Z,22.87
2022-08-02T08:39:58.314Z,22.17
2022-08-02T08:45:01.258Z,21.70
2022-08-02T08:50:18.930Z,23.40
2022-08-02T08:55:27.656Z,23.25
2022-08-02T09:00:31.399Z,23.61
2022-08-02T09:05:39.255Z,21.98
2022-08-02T09:10:45.235Z,22.21
2022-08-02T09:16:12.022Z,23.54
2022-08-02T09:21:17.881Z,22.99
2022-08-02T09:26:22.677Z,23.56
2022-08-02T09:31:25.162Z,23.52
2022-08-02T09:36:30.448Z,23.39
2022-08-02T09:41:37.870Z,22.06
2022-08-02T09:46:43.127Z,23.01
2022-08-02T09:51:53.729Z,23.08
2022-08-02T09:56:59.882Z,23.57
2022-08-02T10:02:14.826Z,23.54
2022-08-02T10:07:22.950Z,23.87
2022-08-02T10:12:25.698Z,23.31
2022-08-02T10:17:28.383Z,22.24
2022-08-02T10:22:30.875Z,21.96
2022-08-02T10:27:49.213Z,22.28
2022-08-02T10:32:57.303Z,22.44
2022-08-02T10:38:04.232Z,23.36
2022-08-02T10:43:09.777Z,21.63
2022-08-02T10:48:14.857Z,22.10
2022-08-02T10:53:33.182Z,22.79
2022-08-02T10:58:36.303Z,24.38
2022-08-02T11:03:40.942Z,24.59
2022-08-02T11:08:43.520Z,23.04
2022-08-02T11:14:03.490Z,24.50
2022-08-02T11:19:06.677Z,24.64
2022-08-02T11:24:27.957Z,23.86
2022-08-02T11:29:38.572Z,24.74
2022-08-02T11:34:41.683Z,24.78
2022-08-02T11:39:51.706Z,24.45
2022-08-02T11:44:54.003Z,25.20
2022-08-02T11:50:10.044Z,24.45
2022-08-02T11:55:14.258Z,25.03
2022-08-02T12:00:18.544Z,24.74
2022-08-02T12:05:51.118Z,25.56
2022-08-02T12:10:50.102Z,25.48
2022-08-02T12:15:52.323Z,24.78
2022-08-02T12:20:54.975Z,25.14
2022-08-02T12:26:03.475Z,25.35
2022-08-02T12:31:07.067Z,25.37
2022-08-02T12:36:18.817Z,25.06
2022-08-02T12:41:31.444Z,25.43
2022-08-02T12:46:35.539Z,24.58
2022-08-02T12:51:51.342Z,24.59
2022-08-02T12:57:12.874Z,23.47
2022-08-02T13:02:17.500Z,25.76
2022-08-02T13:07:20.210Z,25.31
2022-08-02T13:12:22.616Z,25.85
2022-08-02T13:17:24.994Z,25.77
2022-08-02T13:22:28.763Z,25.70
2022-08-02T13:27:32.360Z,25.51
2022-08-02T13:32:34.665Z,25.86
2022-08-02T13:37:40.029Z,24.93
2022-08-02T13:42:42.925Z,25.44
2022-08-02T13:47:57.619Z,25.40
2022-08-02T13:53:07.577Z,24.15
2022-08-02T13:58:10.007Z,25.49
2022-08-02T14:03:12.495Z,25.91
2022-08-02T14:08:18.441Z,25.52
2022-08-02T14:13:20.851Z,25.78
2022-08-02T14:18:23.156Z,25.31
2022-08-02T14:23:50.730Z,25.42
2022-08-02T14:28:47.770Z,25.54
2022-08-02T14:33:53.540Z,25.40
2022-08-02T14:38:56.363Z,25.34
2022-08-02T14:44:04.412Z,24.77
2022-08-02T14:49:08.352Z,25.63
2022-08-02T14:54:11.916Z,25.30
2022-08-02T14:59:16.939Z,24.99
2022-08-02T15:04:19.139Z,25.22
2022-08-02T15:09:21.766Z,25.45
2022-08-02T15:14:26.351Z,24.99
2022-08-02T15:19:56.197Z,25.39
2022-08-02T15:24:52.032Z,24.92
2022-08-02T15:30:00.626Z,25.23
2022-08-02T15:35:03.270Z,24.81
2022-08-02T15:40:06.403Z,24.69
2022-08-02T15:45:15.306Z,24.62
2022-08-02T15:50:18.879Z,24.93
2022-08-02T15:55:21.154Z,24.65
2022-08-02T16:00:23.436Z,24.30
2022-08-02T16:05:25.824Z,24.33
2022-08-02T16:10:28.620Z,24.42
2022-08-02T16:15:30.778Z,24.45
2022-08-02T16:20:33.031Z,24.15
2022-08-02T16:25:40.091Z,24.23
2022-08-02T16:30:54.333Z,22.53
2022-08-02T16:36:06.599Z,23.67
2022-08-02T16:41:09.125Z,23.25
2022-08-02T16:46:11.457Z,23.21
2022-08-02T16:51:14.205Z,23.24
2022-08-02T16:56:17.341Z,22.96
2022-08-02T17:01:27.156Z,22.82
2022-08-02T17:06:30.104Z,22.35
2022-08-02T17:11:32.378Z,22.99
2022-08-02T17:16:34.589Z,22.41
2022-08-02T17:21:38.643Z,22.50
2022-08-02T17:26:41.026Z,22.33
2022-08-02T17:32:04.960Z,22.34
2022-08-02T17:37:08.541Z,20.15
2022-08-02T17:42:11.135Z,21.84
2022-08-02T17:47:41.959Z,21.33
2022-08-02T17:52:59.933Z,21.91
2022-08-02T17:58:02.583Z,21.50
2022-08-02T18:03:08.007Z,21.39
2022-08-02T18:08:14.056Z,20.91
2022-08-02T18:13:17.559Z,21.38
2022-08-02T18:18:29.165Z,20.76
2022-08-02T18:23:32.430Z,20.36
2022-08-02T18:28:46.247Z,20.40
2022-08-02T18:34:13.369Z,20.70
2022-08-02T18:39:16.631Z,20.44
2022-08-02T18:44:19.006Z,20.08
2022-08-02T18:49:22.606Z,20.35
2022-08-02T18:54:26.549Z,20.06
2022-08-02T18:59:36.739Z,20.19
2022-08-02T19:05:06.907Z,20.48
2022-08-02T19:10:36.656Z,19.99
2022-08-02T19:15:39.718Z,20.28
2022-08-02T19:20:47.442Z,20.09
2022-08-02T19:25:54.739Z,19.07
2022-08-02T19:30:59.519Z,19.87
2022-08-02T19:36:03.715Z,19.71
2022-08-02T19:41:06.805Z,19.59
2022-08-02T19:46:15.524Z,19.34
2022-08-02T19:51:49.961Z,20.00
2022-08-02T19:56:40.922Z,17.54
2022-08-02T20:01:48.543Z,18.76
2022-08-02T20:06:52.023Z,19.49
2022-08-02T20:11:55.311Z,18.90
2022-08-02T20:16:57.811Z,17.84
2022-08-02T20:22:00.751Z,19.26
2022-08-02T20:27:03.614Z,18.93
2022-08-02T20:32:07.828Z,18.04
2022-08-02T20:38:01.283Z,19.10
2022-08-02T20:42:34.372Z,19.05
2022-08-02T20:47:39.814Z,18.99
2022-08-02T20:52:42.731Z,18.95
2022-08-02T20:57:49.113Z,18.60
2022-08-02T21:03:04.460Z,18.87
2022-08-02T21:08:06.922Z,18.69
2022-08-02T21:13:22.293Z,18.76
2022-08-02T21:18:39.620Z,18.69
2022-08-02T21:23:48.326Z,18.32
2022-08-02T21:28:51.428Z,18.24
2022-08-02T21:33:58.573Z,16.47
2022-08-02T21:39:08.817Z,17.99
2022-08-02T21:44:11.578Z,18.26
2022-08-02T21:49:14.615Z,18.46
2022-08-02T21:54:20.971Z,18.43
2022-08-02T21:59:26.012Z,18.39
2022-08-02T22:04:29.015Z,17.95
2022-08-02T22:09:42.817Z,18.32
2022-08-02T22:14:54.951Z,18.27
2022-08-02T22:19:57.953Z,17.75
2022-08-02T22:25:00.476Z,18.20
2022-08-02T22:30:07.072Z,16.95
2022-08-02T22:35:12.345Z,18.04
2022-08-02T22:40:14.845Z,17.80
2022-08-02T22:45:17.119Z,15.26
2022-08-02T22:50:19.543Z,18.12
2022-08-02T22:55:23.436Z,17.68
2022-08-02T23:00:26.188Z,18.07
2022-08-02T23:05:28.487Z,18.01
2022-08-02T23:10:30.672Z,17.68
2022-08-02T23:15:51.389Z,17.68
2022-08-02T23:20:53.580Z,16.45
2022-08-02T23:25:55.741Z,17.52
2022-08-02T23:30:57.919Z,17.02
2022-08-02T23:36:00.100Z,17.46
2022-08-02T23:41:04.889Z,16.68
2022-08-02T23:46:07.152Z,17.15
2022-08-02T23:51:09.363Z,17.03
2022-08-02T23:56:17.834Z,17.14
